Arab, AL

11:17 AM CDT on August 27, 2016 (GMT -0500)
| | Change Station

Elev -9999 ft 0.00 °N, 0.00 °E | Updated

Mostly Cloudy
Mostly Cloudy
86 °F
Feels Like 92 °F
N
6
Wind Variable Wind from ESE
Gusts mph

Today
High -- | Low -- °F
--% Chance of Precip.
Yesterday
High -- | Low -- °F
Precip. -- in
Pressure 30.12 in
Visibility 10.0 miles
Clouds Scattered Clouds 6000 ft
Scattered Clouds 7500 ft
Heat Index 92 °F
Dew Point 72 °F
Humidity 64%
Rainfall --
Snow Depth Not available.
6:15 AM 7:17 PM
Waning Crescent, 23% visible
METAR K8A0 271555Z AUTO 14004KT 10SM SCT060 SCT075 30/26 A3012 RMK AO2
Pressure 30.12 in
Visibility 10.0 miles
Clouds Scattered Clouds 6000 ft
Scattered Clouds 7500 ft
Heat Index 92 °F
Dew Point 72 °F
Humidity 64%
Rainfall --
Snow Depth Not available.
6:15 AM 7:17 PM
Waning Crescent, 23% visible
METAR K8A0 271555Z AUTO 14004KT 10SM SCT060 SCT075 30/26 A3012 RMK AO2

10-Day Weather Forecast

Almanac

Astronomy

Aug. 27, 2016 Rise Set
Actual Time
Civil Twilight
Nautical Twilight
Astronomical Twilight
Moon
Length of Visible Light
Length of Day
Tomorrow will be .
, % of the Moon is Illuminated

Today's Extremes

State Highs State Lows

Community

WunderPhotos

Upload Photos

1,935,375 photos uploaded!

WunderBlog® & News

Nearby

Air Quality

  Air Quality AQ Index Pollutant
Not available.

Snow Depth

Station Depth Elevation

Earthquake Activity

City Distance Mag. Time & Date
Minimum magnitude displayed is 2.5.

Coastal Water Temperatures

Place Temperature

Stations

Nearby Weather Stations

Station Location Temp. Windchill Dew Point Humidity Wind Precip. Elev Updated Type
                   

Watches & Warnings

There are currently no watches in effect.